createdAt,value
2023-04-23T00:02:12.446Z,100916.16
2023-04-23T00:04:40.020Z,100909.69
2023-04-23T00:07:07.296Z,100908.13
2023-04-23T00:09:35.793Z,100906.28
2023-04-23T00:12:03.005Z,100909.16
2023-04-23T00:14:30.050Z,100917.19
2023-04-23T00:16:57.020Z,100917.69
2023-04-23T00:19:24.075Z,100912.25
2023-04-23T00:21:50.918Z,100911.72
2023-04-23T00:24:17.784Z,100910.91
2023-04-23T00:26:44.649Z,100908.31
2023-04-23T00:29:11.465Z,100909.38
2023-04-23T00:31:38.388Z,100900.00
2023-04-23T00:34:05.300Z,100902.34
2023-04-23T00:36:32.095Z,100905.19
2023-04-23T00:38:58.943Z,100901.31
2023-04-23T00:41:27.564Z,100896.88
2023-04-23T00:43:57.377Z,100890.66
2023-04-23T00:46:26.564Z,100880.00
2023-04-23T00:48:53.657Z,100878.44
2023-04-23T00:51:23.575Z,100877.69
2023-04-23T00:53:50.951Z,100875.56
2023-04-23T00:56:18.736Z,100868.84
2023-04-23T00:58:46.042Z,100880.25
2023-04-23T01:01:14.248Z,100876.09
2023-04-23T01:03:43.599Z,100877.66
2023-04-23T01:06:10.543Z,100869.84
2023-04-23T01:08:38.898Z,100871.16
2023-04-23T01:11:06.184Z,100862.63
2023-04-23T01:13:33.437Z,100866.28
2023-04-23T01:16:00.321Z,100862.63
2023-04-23T01:18:27.754Z,100865.22
2023-04-23T01:20:54.686Z,100862.63
2023-04-23T01:23:22.475Z,100850.72
2023-04-23T01:25:49.634Z,100847.06
2023-04-23T01:28:17.078Z,100838.25
2023-04-23T01:30:45.465Z,100832.25
2023-04-23T01:33:12.480Z,100842.16
2023-04-23T01:35:41.446Z,100840.84
2023-04-23T01:38:12.037Z,100834.88
2023-04-23T01:40:38.937Z,100834.88
2023-04-23T01:43:08.210Z,100833.88
2023-04-23T01:45:35.190Z,100830.47
2023-04-23T01:48:02.229Z,100828.66
2023-04-23T01:50:30.179Z,100838.00
2023-04-23T01:52:57.253Z,100827.88
2023-04-23T01:55:24.123Z,100819.34
2023-04-23T01:57:51.787Z,100825.81
2023-04-23T02:00:19.080Z,100821.41
2023-04-23T02:02:46.088Z,100819.59
2023-04-23T02:05:20.902Z,100807.91
2023-04-23T02:07:49.656Z,100814.91
2023-04-23T02:10:17.064Z,100813.38
2023-04-23T02:12:45.432Z,100811.84
2023-04-23T02:15:13.088Z,100810.78
2023-04-23T02:17:40.182Z,100809.75
2023-04-23T02:20:09.933Z,100806.63
2023-04-23T02:22:39.282Z,100804.31
2023-04-23T02:25:07.446Z,100802.75
2023-04-23T02:27:35.568Z,100796.75
2023-04-23T02:30:02.698Z,100797.78
2023-04-23T02:32:29.633Z,100800.66
2023-04-23T02:34:56.729Z,100796.50
2023-04-23T02:37:23.524Z,100791.03
2023-04-23T02:39:50.545Z,100790.50
2023-04-23T02:42:17.518Z,100790.50
2023-04-23T02:44:44.317Z,100797.28
2023-04-23T02:47:11.275Z,100794.94
2023-04-23T02:49:38.034Z,100790.50
2023-04-23T02:52:04.976Z,100789.47
2023-04-23T02:54:32.553Z,100791.31
2023-04-23T02:56:59.462Z,100796.50
2023-04-23T02:59:26.432Z,100797.28
2023-04-23T03:01:53.294Z,100785.84
2023-04-23T03:04:20.804Z,100790.50
2023-04-23T03:06:48.082Z,100793.13
2023-04-23T03:09:15.378Z,100795.47
2023-04-23T03:11:42.273Z,100792.56
2023-04-23T03:14:09.112Z,100800.13
2023-04-23T03:16:36.349Z,100792.56
2023-04-23T03:19:03.227Z,100795.16
2023-04-23T03:21:30.051Z,100797.78
2023-04-23T03:23:57.092Z,100789.22
2023-04-23T03:26:23.863Z,100791.28
2023-04-23T03:28:50.728Z,100780.13
2023-04-23T03:31:17.538Z,100785.84
2023-04-23T03:33:44.414Z,100779.59
2023-04-23T03:36:11.243Z,100780.91
2023-04-23T03:38:38.474Z,100767.13
2023-04-23T03:41:05.619Z,100767.66
2023-04-23T03:43:32.562Z,100765.03
2023-04-23T03:45:59.405Z,100769.72
2023-04-23T03:48:26.374Z,100774.41
2023-04-23T03:50:53.202Z,100777.53
2023-04-23T03:53:20.005Z,100774.44
2023-04-23T03:55:46.839Z,100768.97
2023-04-23T03:58:13.927Z,100767.94
2023-04-23T04:00:41.225Z,100767.66
2023-04-23T04:03:09.569Z,100774.19
2023-04-23T04:05:36.539Z,100768.72
2023-04-23T04:08:05.132Z,100767.16
2023-04-23T04:10:32.037Z,100765.34
2023-04-23T04:12:58.851Z,100770.00
2023-04-23T04:15:25.795Z,100765.09
2023-04-23T04:17:52.604Z,100769.78
2023-04-23T04:20:19.834Z,100766.13
2023-04-23T04:22:46.910Z,100763.50
2023-04-23T04:25:13.652Z,100763.00
2023-04-23T04:27:41.878Z,100760.41
2023-04-23T04:30:09.614Z,100765.59
2023-04-23T04:32:39.015Z,100767.94
2023-04-23T04:35:06.940Z,100767.16
2023-04-23T04:37:33.887Z,100776.00
2023-04-23T04:40:01.597Z,100770.53
2023-04-23T04:42:28.406Z,100772.88
2023-04-23T04:44:55.211Z,100771.84
2023-04-23T04:47:22.032Z,100769.75
2023-04-23T04:49:48.995Z,100771.84
2023-04-23T04:52:15.935Z,100773.66
2023-04-23T04:54:42.991Z,100773.41
2023-04-23T04:57:09.969Z,100777.03
2023-04-23T04:59:36.972Z,100772.09
2023-04-23T05:02:03.938Z,100777.03
2023-04-23T05:04:30.859Z,100780.66
2023-04-23T05:06:57.830Z,100774.09
2023-04-23T05:09:26.165Z,100770.22
2023-04-23T05:11:53.004Z,100765.78
2023-04-23T05:14:19.871Z,100763.47
2023-04-23T05:16:46.686Z,100767.13
2023-04-23T05:19:13.594Z,100772.31
2023-04-23T05:21:40.792Z,100764.22
2023-04-23T05:24:07.630Z,100765.97
2023-04-23T05:26:34.461Z,100767.56
2023-04-23T05:29:01.193Z,100774.88
2023-04-23T05:31:29.429Z,100774.22
2023-04-23T05:33:56.345Z,100775.75
2023-04-23T05:36:23.173Z,100770.50
2023-04-23T05:38:50.005Z,100774.09
2023-04-23T05:41:16.909Z,100769.19
2023-04-23T05:43:43.959Z,100770.19
2023-04-23T05:46:10.736Z,100778.16
2023-04-23T05:48:37.542Z,100781.00
2023-04-23T05:51:04.521Z,100778.78
2023-04-23T05:53:31.345Z,100781.88
2023-04-23T05:55:58.227Z,100780.72
2023-04-23T05:58:25.996Z,100786.38
2023-04-23T06:00:53.469Z,100780.09
2023-04-23T06:03:20.697Z,100773.53
2023-04-23T06:05:47.871Z,100769.31
2023-04-23T06:08:14.993Z,100771.66
2023-04-23T06:10:41.930Z,100772.78
2023-04-23T06:13:09.056Z,100764.50
2023-04-23T06:15:35.914Z,100772.63
2023-04-23T06:18:02.858Z,100765.50
2023-04-23T06:20:30.192Z,100757.97
2023-04-23T06:22:56.959Z,100756.97
2023-04-23T06:25:23.776Z,100755.53
2023-04-23T06:27:50.596Z,100760.34
2023-04-23T06:30:17.393Z,100754.41
2023-04-23T06:32:44.276Z,100756.00
2023-04-23T06:35:11.139Z,100758.88
2023-04-23T06:37:37.917Z,100753.69
2023-04-23T06:40:05.105Z,100747.78
2023-04-23T06:42:32.009Z,100749.72
2023-04-23T06:44:59.729Z,100748.88
2023-04-23T06:47:26.539Z,100743.84
2023-04-23T06:49:53.300Z,100736.22
2023-04-23T06:52:20.092Z,100739.97
2023-04-23T06:54:46.961Z,100740.84
2023-04-23T06:57:13.762Z,100742.56
2023-04-23T06:59:40.536Z,100733.91
2023-04-23T07:02:07.768Z,100737.16
2023-04-23T07:04:34.804Z,100728.63
2023-04-23T07:07:01.718Z,100736.13
2023-04-23T07:09:29.075Z,100733.47
2023-04-23T07:11:56.317Z,100729.63
2023-04-23T07:14:23.133Z,100728.91
2023-04-23T07:16:50.270Z,100733.38
2023-04-23T07:19:17.117Z,100729.75
2023-04-23T07:21:43.939Z,100724.56
2023-04-23T07:24:11.464Z,100726.47
2023-04-23T07:26:38.409Z,100720.78
2023-04-23T07:29:10.771Z,100725.19
2023-04-23T07:31:41.708Z,100725.97
2023-04-23T07:34:09.994Z,100719.25
2023-04-23T07:36:37.117Z,100727.09
2023-04-23T07:39:05.489Z,100726.47
2023-04-23T07:41:33.440Z,100719.84
2023-04-23T07:44:00.384Z,100720.56
2023-04-23T07:46:27.366Z,100719.38
2023-04-23T07:48:54.241Z,100712.38
2023-04-23T07:51:22.610Z,100712.84
2023-04-23T07:53:51.421Z,100712.66
2023-04-23T07:56:18.294Z,100713.63
2023-04-23T07:58:45.052Z,100713.56
2023-04-23T08:01:12.095Z,100711.75
2023-04-23T08:03:39.252Z,100709.72
2023-04-23T08:06:06.618Z,100702.97
2023-04-23T08:08:33.463Z,100708.22
2023-04-23T08:11:00.317Z,100701.56
2023-04-23T08:13:27.205Z,100694.28
2023-04-23T08:15:54.152Z,100701.56
2023-04-23T08:18:21.118Z,100694.69
2023-04-23T08:20:49.241Z,100698.44
2023-04-23T08:23:16.444Z,100698.38
2023-04-23T08:25:43.608Z,100691.69
2023-04-23T08:28:10.505Z,100687.78
2023-04-23T08:30:37.424Z,100691.44
2023-04-23T08:33:04.692Z,100682.06
2023-04-23T08:35:31.661Z,100686.84
2023-04-23T08:37:58.643Z,100688.81
2023-04-23T08:40:29.298Z,100679.25
2023-04-23T08:43:03.810Z,100690.56
2023-04-23T08:45:31.530Z,100696.19
2023-04-23T08:48:02.616Z,100688.19
2023-04-23T08:50:31.114Z,100686.84
2023-04-23T08:52:58.674Z,100685.50
2023-04-23T08:55:26.357Z,100689.59
2023-04-23T08:57:53.222Z,100689.38
2023-04-23T09:00:23.311Z,100684.97
2023-04-23T09:02:50.941Z,100680.47
2023-04-23T09:05:18.781Z,100682.41
2023-04-23T09:07:45.858Z,100676.97
2023-04-23T09:10:16.999Z,100681.63
2023-04-23T09:12:45.698Z,100683.88
2023-04-23T09:15:13.978Z,100684.63
2023-04-23T09:17:44.215Z,100688.22
2023-04-23T09:20:12.336Z,100680.91
2023-04-23T09:22:42.293Z,100682.94
2023-04-23T09:25:12.183Z,100679.00
2023-04-23T09:27:40.300Z,100677.38
2023-04-23T09:30:10.054Z,100676.00
2023-04-23T09:32:42.762Z,100674.88
2023-04-23T09:35:15.565Z,100668.28
2023-04-23T09:37:44.104Z,100661.47
2023-04-23T09:40:14.360Z,100667.75
2023-04-23T09:42:41.593Z,100665.69
2023-04-23T09:45:11.699Z,100663.56
2023-04-23T09:47:39.830Z,100664.03
2023-04-23T09:50:08.635Z,100668.16
2023-04-23T09:52:39.382Z,100659.16
2023-04-23T09:55:07.017Z,100654.22
2023-04-23T09:57:44.725Z,100658.63
2023-04-23T10:00:17.184Z,100655.09
2023-04-23T10:02:51.297Z,100658.25
2023-04-23T10:05:27.266Z,100655.03
2023-04-23T10:07:58.774Z,100659.16
2023-04-23T10:10:26.201Z,100658.03
2023-04-23T10:12:55.880Z,100651.03
2023-04-23T10:15:27.345Z,100651.72
2023-04-23T10:17:56.020Z,100653.25
2023-04-23T10:20:24.557Z,100646.31
2023-04-23T10:22:54.064Z,100662.31
2023-04-23T10:25:23.132Z,100658.03
2023-04-23T10:27:54.419Z,100660.88
2023-04-23T10:30:23.272Z,100652.06
2023-04-23T10:32:50.905Z,100646.13
2023-04-23T10:35:18.188Z,100638.59
2023-04-23T10:37:47.200Z,100640.94
2023-04-23T10:40:19.187Z,100635.91
2023-04-23T10:42:47.528Z,100634.53
2023-04-23T10:45:24.595Z,100628.19
2023-04-23T10:47:55.472Z,100623.16
2023-04-23T10:50:30.404Z,100620.19
2023-04-23T10:52:58.307Z,100621.72
2023-04-23T10:55:31.011Z,100614.31
2023-04-23T10:58:02.412Z,100614.53
2023-04-23T11:00:46.099Z,100607.38
2023-04-23T11:03:32.348Z,100616.72
2023-04-23T11:06:03.535Z,100604.34
2023-04-23T11:08:34.324Z,100602.47
2023-04-23T11:11:06.979Z,100595.94
2023-04-23T11:13:34.051Z,100598.16
2023-04-23T11:16:16.972Z,100592.38
2023-04-23T11:19:12.546Z,100589.94
2023-04-23T11:22:01.773Z,100579.72
2023-04-23T11:24:37.534Z,100576.88
2023-04-23T11:27:09.058Z,100577.06
2023-04-23T11:29:37.737Z,100568.78
2023-04-23T11:32:05.845Z,100570.47
2023-04-23T11:34:34.086Z,100572.41
2023-04-23T11:37:02.801Z,100566.66
2023-04-23T11:39:29.817Z,100563.28
2023-04-23T11:41:57.998Z,100551.34
2023-04-23T11:44:25.580Z,100558.19
2023-04-23T11:46:52.639Z,100549.00
2023-04-23T11:49:20.864Z,100539.91
2023-04-23T11:51:48.583Z,100540.53
2023-04-23T11:54:15.510Z,100534.53
2023-04-23T11:56:42.723Z,100528.75
2023-04-23T11:59:09.801Z,100524.41
2023-04-23T12:01:41.617Z,100522.97
2023-04-23T12:04:12.471Z,100524.09
2023-04-23T12:06:43.048Z,100510.31
2023-04-23T12:09:12.174Z,100518.34
2023-04-23T12:11:41.028Z,100511.81
2023-04-23T12:14:08.891Z,100504.69
2023-04-23T12:16:41.505Z,100505.28
2023-04-23T12:19:10.090Z,100510.97
2023-04-23T12:21:51.369Z,100503.59
2023-04-23T12:24:18.330Z,100499.34
2023-04-23T12:26:45.286Z,100497.63
2023-04-23T12:29:14.354Z,100492.25
2023-04-23T12:31:44.430Z,100492.00
2023-04-23T12:34:14.725Z,100487.56
2023-04-23T12:36:45.969Z,100488.19
2023-04-23T12:39:39.111Z,100485.03
2023-04-23T12:42:08.329Z,100485.97
2023-04-23T12:44:36.511Z,100470.47
2023-04-23T12:47:08.560Z,100466.44
2023-04-23T12:49:37.244Z,100470.47
2023-04-23T12:52:05.748Z,100456.84
2023-04-23T12:54:38.063Z,100460.66
2023-04-23T12:57:13.084Z,100455.00
2023-04-23T12:59:40.113Z,100449.91
2023-04-23T13:02:07.519Z,100447.25
2023-04-23T13:04:36.219Z,100451.47
2023-04-23T13:07:03.868Z,100452.97
2023-04-23T13:09:30.862Z,100440.84
2023-04-23T13:11:57.930Z,100432.00
2023-04-23T13:14:25.009Z,100426.22
2023-04-23T13:16:53.009Z,100416.28
2023-04-23T13:19:19.969Z,100412.19
2023-04-23T13:21:46.958Z,100419.50
2023-04-23T13:24:16.817Z,100408.53
2023-04-23T13:26:43.954Z,100407.13
2023-04-23T13:29:11.704Z,100410.25
2023-04-23T13:31:38.770Z,100405.41
2023-04-23T13:34:05.770Z,100397.56
2023-04-23T13:36:32.715Z,100389.94
2023-04-23T13:38:59.577Z,100391.09
2023-04-23T13:41:27.584Z,100386.75
2023-04-23T13:43:54.400Z,100389.28
2023-04-23T13:46:21.449Z,100388.81
2023-04-23T13:48:48.505Z,100383.63
2023-04-23T13:51:33.125Z,100383.16
2023-04-23T13:54:02.102Z,100378.63
2023-04-23T13:56:30.822Z,100379.63
2023-04-23T14:01:33.534Z,100373.09
2023-04-23T14:04:00.546Z,100368.44
2023-04-23T14:06:28.074Z,100366.06
2023-04-23T14:08:55.023Z,100363.34
2023-04-23T14:11:22.844Z,100357.06
2023-04-23T14:13:49.815Z,100345.38
2023-04-23T14:16:17.684Z,100345.72
2023-04-23T14:18:45.885Z,100339.78
2023-04-23T14:21:14.932Z,100340.41
2023-04-23T14:23:50.471Z,100331.50
2023-04-23T14:26:41.156Z,100333.47
2023-04-23T14:29:23.100Z,100332.13
2023-04-23T14:31:50.597Z,100327.06
2023-04-23T14:34:17.499Z,100326.63
2023-04-23T14:36:46.741Z,100327.19
2023-04-23T14:39:13.585Z,100327.44
2023-04-23T14:41:41.173Z,100317.94
2023-04-23T14:44:08.210Z,100313.53
2023-04-23T14:46:35.069Z,100308.16
2023-04-23T14:49:01.908Z,100308.84
2023-04-23T14:51:28.839Z,100307.88
2023-04-23T14:53:56.870Z,100315.97
2023-04-23T14:56:24.042Z,100324.69
2023-04-23T14:58:51.001Z,100322.25
2023-04-23T15:01:17.964Z,100324.53
2023-04-23T15:03:45.559Z,100338.69
2023-04-23T15:06:12.657Z,100349.53
2023-04-23T15:08:39.575Z,100362.06
2023-04-23T15:11:13.395Z,100369.38
2023-04-23T15:13:42.925Z,100376.03
2023-04-23T15:16:46.783Z,100374.81
2023-04-23T15:19:14.843Z,100390.34
2023-04-23T15:21:43.263Z,100383.03
2023-04-23T15:24:10.504Z,100382.97
2023-04-23T15:26:38.059Z,100375.00
2023-04-23T15:29:09.035Z,100380.00
2023-04-23T15:31:39.076Z,100368.81
2023-04-23T15:34:09.272Z,100381.22
2023-04-23T15:36:38.178Z,100378.81
2023-04-23T15:39:07.391Z,100367.56
2023-04-23T15:41:38.479Z,100375.78
2023-04-23T15:44:11.117Z,100374.25
2023-04-23T15:46:38.028Z,100378.84
2023-04-23T15:49:05.787Z,100377.63
2023-04-23T15:51:33.117Z,100383.84
2023-04-23T15:54:02.280Z,100383.72
2023-04-23T15:56:29.369Z,100382.06
2023-04-23T15:58:56.371Z,100373.13
2023-04-23T16:01:25.483Z,100371.50
2023-04-23T16:04:08.598Z,100357.81
2023-04-23T16:06:37.549Z,100358.03
2023-04-23T16:09:07.348Z,100357.91
2023-04-23T16:11:35.874Z,100359.78
2023-04-23T16:14:02.830Z,100359.94
2023-04-23T16:16:30.964Z,100359.03
2023-04-23T16:18:58.024Z,100364.91
2023-04-23T16:21:24.936Z,100349.50
2023-04-23T16:23:51.929Z,100358.91
2023-04-23T16:26:18.938Z,100342.09
2023-04-23T16:28:51.836Z,100341.66
2023-04-23T16:31:28.403Z,100334.53
2023-04-23T16:33:56.455Z,100321.91
2023-04-23T16:36:23.407Z,100317.94
2023-04-23T16:38:50.312Z,100313.91
2023-04-23T16:41:19.413Z,100302.31
2023-04-23T16:43:50.002Z,100300.63
2023-04-23T16:46:17.244Z,100291.72
2023-04-23T16:48:45.457Z,100290.47
2023-04-23T16:51:14.052Z,100286.00
2023-04-23T16:53:41.230Z,100273.06
2023-04-23T16:56:08.801Z,100270.13
2023-04-23T16:58:36.250Z,100258.44
2023-04-23T17:01:03.179Z,100243.19
2023-04-23T17:03:30.198Z,100244.44
2023-04-23T17:06:10.313Z,100232.25
2023-04-23T17:08:38.285Z,100222.28
2023-04-23T17:11:08.609Z,100211.06
2023-04-23T17:13:35.709Z,100198.44
2023-04-23T17:16:03.037Z,100193.81
2023-04-23T17:18:30.246Z,100187.38
2023-04-23T17:20:57.325Z,100174.75
2023-04-23T17:23:24.277Z,100162.91
2023-04-23T17:25:51.174Z,100172.47
2023-04-23T17:28:21.249Z,100158.28
2023-04-23T17:30:51.402Z,100155.97
2023-04-23T17:33:18.563Z,100149.22
2023-04-23T17:35:46.958Z,100146.44
2023-04-23T17:38:14.162Z,100144.13
2023-04-23T17:40:41.172Z,100140.88
2023-04-23T17:43:08.074Z,100137.34
2023-04-23T17:45:35.097Z,100125.97
2023-04-23T17:48:02.179Z,100125.53
2023-04-23T17:50:30.098Z,100121.53
2023-04-23T17:52:57.351Z,100112.44
2023-04-23T17:55:24.418Z,100117.19
2023-04-23T17:57:51.434Z,100114.44
2023-04-23T18:00:19.266Z,100108.75
2023-04-23T18:02:46.729Z,100105.69
2023-04-23T18:05:15.569Z,100100.91
2023-04-23T18:07:43.922Z,100096.28
2023-04-23T18:10:12.418Z,100091.34
2023-04-23T18:12:39.788Z,100096.13
2023-04-23T18:15:08.890Z,100082.91
2023-04-23T18:17:35.829Z,100075.97
2023-04-23T18:20:02.963Z,100080.56
2023-04-23T18:22:29.887Z,100073.97
2023-04-23T18:24:56.948Z,100069.38
2023-04-23T18:27:24.790Z,100070.88
2023-04-23T18:29:51.741Z,100066.75
2023-04-23T18:32:31.452Z,100053.06
2023-04-23T18:35:02.580Z,100063.34
2023-04-23T18:37:33.652Z,100066.13
2023-04-23T18:40:00.933Z,100054.59
2023-04-23T18:42:27.908Z,100051.19
2023-04-23T18:44:55.655Z,100049.69
2023-04-23T18:47:28.519Z,100045.97
2023-04-23T18:50:03.094Z,100041.38
2023-04-23T18:52:30.051Z,100050.28
2023-04-23T18:54:57.163Z,100038.91
2023-04-23T18:57:24.145Z,100038.75
2023-04-23T18:59:51.229Z,100041.06
2023-04-23T19:02:24.876Z,100037.97
2023-04-23T19:05:01.803Z,100029.84
2023-04-23T19:07:28.934Z,100040.28
2023-04-23T19:09:55.977Z,100034.59
2023-04-23T19:12:22.935Z,100029.38
2023-04-23T19:14:49.868Z,100030.28
2023-04-23T19:17:18.798Z,100025.06
2023-04-23T19:19:46.351Z,100024.91
2023-04-23T19:22:13.131Z,100027.53
2023-04-23T19:24:40.065Z,100013.38
2023-04-23T19:27:07.370Z,100013.38
2023-04-23T19:29:34.324Z,100010.59
2023-04-23T19:32:01.331Z,100017.69
2023-04-23T19:34:28.320Z,100007.53
2023-04-23T19:36:55.130Z,100001.06
2023-04-23T19:39:23.836Z,99991.69
2023-04-23T19:41:50.932Z,99992.94
2023-04-23T19:44:17.709Z,99989.06
2023-04-23T19:46:44.759Z,99980.75
2023-04-23T19:49:11.676Z,99972.94
2023-04-23T19:51:40.154Z,99974.00
2023-04-23T19:54:07.242Z,99973.56
2023-04-23T19:56:34.204Z,99964.97
2023-04-23T19:59:01.194Z,99971.72
2023-04-23T20:01:30.172Z,99970.31
2023-04-23T20:03:57.486Z,99964.03
2023-04-23T20:06:24.447Z,99965.09
2023-04-23T20:09:18.343Z,99958.03
2023-04-23T20:11:46.220Z,99959.88
2023-04-23T20:14:13.667Z,99957.41
2023-04-23T20:16:41.673Z,99955.09
2023-04-23T20:19:11.284Z,99960.81
2023-04-23T20:21:39.061Z,99958.50
2023-04-23T20:24:07.803Z,99952.47
2023-04-23T20:26:39.072Z,99948.94
2023-04-23T20:29:06.336Z,99943.25
2023-04-23T20:31:33.671Z,99945.41
2023-04-23T20:34:01.309Z,99935.59
2023-04-23T20:36:29.095Z,99930.22
2023-04-23T20:38:59.673Z,99933.13
2023-04-23T20:41:29.446Z,99934.50
2023-04-23T20:43:57.387Z,99924.34
2023-04-23T20:46:30.185Z,99921.00
2023-04-23T20:48:59.529Z,99921.00
2023-04-23T20:51:30.057Z,99914.53
2023-04-23T20:53:57.787Z,99921.44
2023-04-23T20:56:24.662Z,99914.38
2023-04-23T20:58:51.576Z,99913.47
2023-04-23T21:01:18.470Z,99905.75
2023-04-23T21:03:45.399Z,99910.03
2023-04-23T21:06:12.391Z,99906.63
2023-04-23T21:08:41.465Z,99908.31
2023-04-23T21:11:14.826Z,99903.72
2023-04-23T21:13:42.817Z,99897.56
2023-04-23T21:16:09.705Z,99897.69
2023-04-23T21:18:36.548Z,99897.06
2023-04-23T21:21:03.950Z,99896.91
2023-04-23T21:23:31.332Z,99892.13
2023-04-23T21:25:58.300Z,99890.25
2023-04-23T21:28:25.168Z,99885.19
2023-04-23T21:30:54.498Z,99893.16
2023-04-23T21:33:23.765Z,99895.13
2023-04-23T21:35:52.683Z,99888.03
2023-04-23T21:38:20.222Z,99894.16
2023-04-23T21:40:47.173Z,99902.41
2023-04-23T21:43:15.072Z,99902.41
2023-04-23T21:45:41.932Z,99893.03
2023-04-23T21:48:08.836Z,99894.72
2023-04-23T21:50:36.284Z,99886.88
2023-04-23T21:53:04.147Z,99891.34
2023-04-23T21:55:31.887Z,99889.50
2023-04-23T21:58:15.878Z,99889.19
2023-04-23T22:00:45.053Z,99888.91
2023-04-23T22:03:19.092Z,99885.22
2023-04-23T22:05:59.448Z,99893.97
2023-04-23T22:08:27.005Z,99894.44
2023-04-23T22:10:53.891Z,99894.44
2023-04-23T22:13:21.571Z,99891.84
2023-04-23T22:15:51.404Z,99899.38
2023-04-23T22:18:18.254Z,99892.31
2023-04-23T22:20:48.391Z,99896.19
2023-04-23T22:23:15.656Z,99892.00
2023-04-23T22:25:42.826Z,99886.50
2023-04-23T22:28:09.657Z,99884.94
2023-04-23T22:30:36.825Z,99885.75
2023-04-23T22:33:05.304Z,99884.19
2023-04-23T22:35:32.487Z,99878.97
2023-04-23T22:37:59.490Z,99877.91
2023-04-23T22:40:26.290Z,99881.28
2023-04-23T22:42:53.074Z,99883.91
2023-04-23T22:45:19.861Z,99884.94
2023-04-23T22:47:46.877Z,99886.50
2023-04-23T22:50:13.909Z,99886.97
2023-04-23T22:52:41.562Z,99882.22
2023-04-23T22:55:08.722Z,99889.56
2023-04-23T22:57:36.058Z,99886.97
2023-04-23T23:00:07.681Z,99894.31
2023-04-23T23:02:34.686Z,99894.28
2023-04-23T23:05:01.469Z,99901.31
2023-04-23T23:07:28.282Z,99905.41
2023-04-23T23:09:55.133Z,99916.44
2023-04-23T23:12:22.575Z,99919.16
2023-04-23T23:14:49.379Z,99919.25
2023-04-23T23:17:16.377Z,99926.94
2023-04-23T23:19:43.413Z,99921.53
2023-04-23T23:22:10.473Z,99921.53
2023-04-23T23:24:37.578Z,99919.03
2023-04-23T23:27:04.417Z,99924.84
2023-04-23T23:29:31.713Z,99931.59
2023-04-23T23:31:58.773Z,99930.47
2023-04-23T23:34:25.777Z,99933.38
2023-04-23T23:36:52.573Z,99932.44
2023-04-23T23:39:20.248Z,99929.34
2023-04-23T23:41:47.388Z,99937.94
2023-04-23T23:44:14.432Z,99941.44
2023-04-23T23:46:41.324Z,99945.84
2023-04-23T23:49:10.860Z,99933.63
2023-04-23T23:51:37.600Z,99933.13
2023-04-23T23:54:04.492Z,99941.53
2023-04-23T23:56:31.275Z,99956.22
2023-04-23T23:58:58.051Z,99941.94
